sensor_id;sensor_type;location;lat;lon;timestamp;P1;durP1;ratioP1;P2;durP2;ratioP2
21010;SDS011;10663;42.714;23.274;2023-08-06T00:01:28;9.10;;;7.63;;
21010;SDS011;10663;42.714;23.274;2023-08-06T00:02:59;8.23;;;6.07;;
21010;SDS011;10663;42.714;23.274;2023-08-06T00:04:30;11.70;;;7.63;;
21010;SDS011;10663;42.714;23.274;2023-08-06T00:06:00;10.15;;;7.43;;
21010;SDS011;10663;42.714;23.274;2023-08-06T00:07:31;10.68;;;7.32;;
21010;SDS011;10663;42.714;23.274;2023-08-06T00:09:02;9.10;;;6.55;;
21010;SDS011;10663;42.714;23.274;2023-08-06T00:10:33;8.95;;;6.57;;
21010;SDS011;10663;42.714;23.274;2023-08-06T00:12:04;9.80;;;6.97;;
21010;SDS011;10663;42.714;23.274;2023-08-06T00:13:35;6.93;;;6.32;;
21010;SDS011;10663;42.714;23.274;2023-08-06T00:15:06;7.95;;;6.13;;
21010;SDS011;10663;42.714;23.274;2023-08-06T00:16:37;8.32;;;6.65;;
21010;SDS011;10663;42.714;23.274;2023-08-06T00:18:08;6.47;;;5.15;;
21010;SDS011;10663;42.714;23.274;2023-08-06T00:19:39;6.85;;;6.10;;
21010;SDS011;10663;42.714;23.274;2023-08-06T00:21:09;8.90;;;5.97;;
21010;SDS011;10663;42.714;23.274;2023-08-06T00:22:42;7.25;;;6.50;;
21010;SDS011;10663;42.714;23.274;2023-08-06T00:24:13;7.30;;;5.97;;
21010;SDS011;10663;42.714;23.274;2023-08-06T00:25:44;8.18;;;5.82;;
21010;SDS011;10663;42.714;23.274;2023-08-06T00:27:15;8.60;;;5.78;;
21010;SDS011;10663;42.714;23.274;2023-08-06T00:28:46;6.38;;;5.78;;
21010;SDS011;10663;42.714;23.274;2023-08-06T00:30:16;7.88;;;6.20;;
21010;SDS011;10663;42.714;23.274;2023-08-06T00:31:48;8.00;;;6.00;;
21010;SDS011;10663;42.714;23.274;2023-08-06T00:33:19;7.43;;;6.38;;
21010;SDS011;10663;42.714;23.274;2023-08-06T00:34:51;8.43;;;6.85;;
21010;SDS011;10663;42.714;23.274;2023-08-06T00:36:22;9.18;;;6.40;;
21010;SDS011;10663;42.714;23.274;2023-08-06T00:37:53;7.85;;;5.80;;
21010;SDS011;10663;42.714;23.274;2023-08-06T00:39:24;7.05;;;6.35;;
21010;SDS011;10663;42.714;23.274;2023-08-06T00:40:55;7.03;;;6.25;;
21010;SDS011;10663;42.714;23.274;2023-08-06T00:42:26;8.15;;;6.32;;
21010;SDS011;10663;42.714;23.274;2023-08-06T00:43:56;9.70;;;6.03;;
21010;SDS011;10663;42.714;23.274;2023-08-06T00:45:27;6.95;;;5.50;;
21010;SDS011;10663;42.714;23.274;2023-08-06T00:47:01;7.72;;;5.93;;
21010;SDS011;10663;42.714;23.274;2023-08-06T00:48:33;9.65;;;6.53;;
21010;SDS011;10663;42.714;23.274;2023-08-06T00:50:05;6.95;;;5.78;;
21010;SDS011;10663;42.714;23.274;2023-08-06T00:51:37;7.25;;;6.00;;
21010;SDS011;10663;42.714;23.274;2023-08-06T00:53:08;6.20;;;5.00;;
21010;SDS011;10663;42.714;23.274;2023-08-06T00:54:39;8.23;;;6.15;;
21010;SDS011;10663;42.714;23.274;2023-08-06T00:56:11;6.05;;;5.22;;
21010;SDS011;10663;42.714;23.274;2023-08-06T00:57:43;6.65;;;5.38;;
21010;SDS011;10663;42.714;23.274;2023-08-06T00:59:14;6.00;;;5.40;;
21010;SDS011;10663;42.714;23.274;2023-08-06T01:00:45;6.65;;;5.18;;
21010;SDS011;10663;42.714;23.274;2023-08-06T01:02:16;5.60;;;4.88;;
21010;SDS011;10663;42.714;23.274;2023-08-06T01:03:47;6.50;;;5.28;;
21010;SDS011;10663;42.714;23.274;2023-08-06T01:05:17;6.30;;;5.40;;
21010;SDS011;10663;42.714;23.274;2023-08-06T01:06:57;6.25;;;5.65;;
21010;SDS011;10663;42.714;23.274;2023-08-06T01:08:53;6.03;;;5.43;;
21010;SDS011;10663;42.714;23.274;2023-08-06T01:10:37;6.23;;;5.63;;
21010;SDS011;10663;42.714;23.274;2023-08-06T01:12:30;9.48;;;5.85;;
21010;SDS011;10663;42.714;23.274;2023-08-06T01:14:08;6.13;;;5.53;;
21010;SDS011;10663;42.714;23.274;2023-08-06T01:16:04;7.07;;;5.63;;
21010;SDS011;10663;42.714;23.274;2023-08-06T01:17:37;6.85;;;5.38;;
21010;SDS011;10663;42.714;23.274;2023-08-06T01:19:16;8.50;;;6.63;;
21010;SDS011;10663;42.714;23.274;2023-08-06T01:20:47;8.05;;;6.43;;
21010;SDS011;10663;42.714;23.274;2023-08-06T01:22:20;6.22;;;5.65;;
21010;SDS011;10663;42.714;23.274;2023-08-06T01:23:51;6.63;;;5.97;;
21010;SDS011;10663;42.714;23.274;2023-08-06T01:25:22;8.05;;;5.15;;
21010;SDS011;10663;42.714;23.274;2023-08-06T01:27:04;8.38;;;5.72;;
21010;SDS011;10663;42.714;23.274;2023-08-06T01:30:29;6.55;;;5.50;;
21010;SDS011;10663;42.714;23.274;2023-08-06T01:32:06;6.88;;;4.80;;
21010;SDS011;10663;42.714;23.274;2023-08-06T01:33:41;6.38;;;5.43;;
21010;SDS011;10663;42.714;23.274;2023-08-06T01:35:15;5.15;;;4.65;;
21010;SDS011;10663;42.714;23.274;2023-08-06T01:36:50;7.30;;;4.95;;
21010;SDS011;10663;42.714;23.274;2023-08-06T01:38:21;6.90;;;5.97;;
21010;SDS011;10663;42.714;23.274;2023-08-06T01:39:52;5.78;;;4.68;;
21010;SDS011;10663;42.714;23.274;2023-08-06T01:41:23;6.82;;;5.45;;
21010;SDS011;10663;42.714;23.274;2023-08-06T01:42:54;8.88;;;5.75;;
21010;SDS011;10663;42.714;23.274;2023-08-06T01:44:24;5.57;;;4.97;;
21010;SDS011;10663;42.714;23.274;2023-08-06T01:45:56;6.72;;;6.13;;
21010;SDS011;10663;42.714;23.274;2023-08-06T01:47:29;7.53;;;5.82;;
21010;SDS011;10663;42.714;23.274;2023-08-06T01:48:59;7.63;;;5.95;;
21010;SDS011;10663;42.714;23.274;2023-08-06T01:50:30;8.50;;;5.47;;
21010;SDS011;10663;42.714;23.274;2023-08-06T01:52:01;6.03;;;5.30;;
21010;SDS011;10663;42.714;23.274;2023-08-06T01:53:32;8.02;;;6.53;;
21010;SDS011;10663;42.714;23.274;2023-08-06T01:55:04;6.57;;;5.15;;
21010;SDS011;10663;42.714;23.274;2023-08-06T01:56:35;7.13;;;6.38;;
21010;SDS011;10663;42.714;23.274;2023-08-06T01:58:06;7.60;;;6.60;;
21010;SDS011;10663;42.714;23.274;2023-08-06T01:59:37;7.88;;;6.65;;
21010;SDS011;10663;42.714;23.274;2023-08-06T02:01:08;9.35;;;6.75;;
21010;SDS011;10663;42.714;23.274;2023-08-06T02:02:38;7.28;;;6.05;;
21010;SDS011;10663;42.714;23.274;2023-08-06T02:04:11;7.65;;;6.50;;
21010;SDS011;10663;42.714;23.274;2023-08-06T02:05:42;9.07;;;6.93;;
21010;SDS011;10663;42.714;23.274;2023-08-06T02:07:13;8.02;;;6.78;;
21010;SDS011;10663;42.714;23.274;2023-08-06T02:08:43;9.15;;;7.10;;
21010;SDS011;10663;42.714;23.274;2023-08-06T02:10:14;9.32;;;7.00;;
21010;SDS011;10663;42.714;23.274;2023-08-06T02:11:45;9.43;;;7.05;;
21010;SDS011;10663;42.714;23.274;2023-08-06T02:13:16;8.80;;;6.82;;
21010;SDS011;10663;42.714;23.274;2023-08-06T02:14:47;7.18;;;6.13;;
21010;SDS011;10663;42.714;23.274;2023-08-06T02:16:18;10.95;;;7.35;;
21010;SDS011;10663;42.714;23.274;2023-08-06T02:17:49;9.07;;;7.18;;
21010;SDS011;10663;42.714;23.274;2023-08-06T02:19:20;8.52;;;6.88;;
21010;SDS011;10663;42.714;23.274;2023-08-06T02:20:54;9.48;;;7.15;;
21010;SDS011;10663;42.714;23.274;2023-08-06T02:22:27;9.13;;;7.32;;
21010;SDS011;10663;42.714;23.274;2023-08-06T02:23:58;8.40;;;6.28;;
21010;SDS011;10663;42.714;23.274;2023-08-06T02:25:29;8.85;;;7.07;;
21010;SDS011;10663;42.714;23.274;2023-08-06T02:27:00;8.82;;;7.55;;
21010;SDS011;10663;42.714;23.274;2023-08-06T02:28:31;15.13;;;8.27;;
21010;SDS011;10663;42.714;23.274;2023-08-06T02:30:02;13.68;;;8.93;;
21010;SDS011;10663;42.714;23.274;2023-08-06T02:31:34;12.70;;;9.05;;
21010;SDS011;10663;42.714;23.274;2023-08-06T02:33:05;14.90;;;9.52;;
21010;SDS011;10663;42.714;23.274;2023-08-06T02:34:36;13.55;;;8.63;;
21010;SDS011;10663;42.714;23.274;2023-08-06T02:36:07;14.98;;;8.57;;
21010;SDS011;10663;42.714;23.274;2023-08-06T02:37:38;10.52;;;7.80;;
21010;SDS011;10663;42.714;23.274;2023-08-06T02:39:09;11.73;;;9.18;;
21010;SDS011;10663;42.714;23.274;2023-08-06T02:40:46;11.68;;;8.82;;
21010;SDS011;10663;42.714;23.274;2023-08-06T02:42:17;10.80;;;7.65;;
21010;SDS011;10663;42.714;23.274;2023-08-06T02:43:48;11.77;;;8.82;;
21010;SDS011;10663;42.714;23.274;2023-08-06T02:45:18;12.00;;;8.50;;
21010;SDS011;10663;42.714;23.274;2023-08-06T02:46:49;11.65;;;8.70;;
21010;SDS011;10663;42.714;23.274;2023-08-06T02:48:20;11.43;;;7.90;;
21010;SDS011;10663;42.714;23.274;2023-08-06T02:49:52;10.48;;;6.95;;
21010;SDS011;10663;42.714;23.274;2023-08-06T02:51:24;9.27;;;7.95;;
21010;SDS011;10663;42.714;23.274;2023-08-06T02:52:55;9.98;;;7.47;;
21010;SDS011;10663;42.714;23.274;2023-08-06T02:54:26;8.57;;;7.00;;
21010;SDS011;10663;42.714;23.274;2023-08-06T02:55:57;7.03;;;6.25;;
21010;SDS011;10663;42.714;23.274;2023-08-06T02:57:35;7.55;;;6.45;;
21010;SDS011;10663;42.714;23.274;2023-08-06T02:59:06;7.78;;;6.10;;
21010;SDS011;10663;42.714;23.274;2023-08-06T03:01:00;7.22;;;6.00;;
21010;SDS011;10663;42.714;23.274;2023-08-06T03:02:40;7.28;;;5.60;;
21010;SDS011;10663;42.714;23.274;2023-08-06T03:04:24;6.65;;;5.60;;
21010;SDS011;10663;42.714;23.274;2023-08-06T03:05:56;7.50;;;6.38;;
21010;SDS011;10663;42.714;23.274;2023-08-06T03:07:37;8.90;;;7.15;;
21010;SDS011;10663;42.714;23.274;2023-08-06T03:09:18;7.78;;;6.97;;
21010;SDS011;10663;42.714;23.274;2023-08-06T03:10:49;10.05;;;7.57;;
21010;SDS011;10663;42.714;23.274;2023-08-06T03:12:21;12.23;;;7.85;;
21010;SDS011;10663;42.714;23.274;2023-08-06T03:13:53;10.38;;;8.18;;
21010;SDS011;10663;42.714;23.274;2023-08-06T03:15:24;9.32;;;7.25;;
21010;SDS011;10663;42.714;23.274;2023-08-06T03:16:56;10.05;;;7.65;;
21010;SDS011;10663;42.714;23.274;2023-08-06T03:18:27;9.02;;;7.50;;
21010;SDS011;10663;42.714;23.274;2023-08-06T03:20:01;8.63;;;6.43;;
21010;SDS011;10663;42.714;23.274;2023-08-06T03:21:32;7.70;;;6.30;;
21010;SDS011;10663;42.714;23.274;2023-08-06T03:23:04;9.88;;;6.75;;
21010;SDS011;10663;42.714;23.274;2023-08-06T03:24:36;7.05;;;6.35;;
21010;SDS011;10663;42.714;23.274;2023-08-06T03:26:07;9.50;;;7.13;;
21010;SDS011;10663;42.714;23.274;2023-08-06T03:27:38;9.63;;;7.00;;
21010;SDS011;10663;42.714;23.274;2023-08-06T03:29:08;9.00;;;6.75;;
21010;SDS011;10663;42.714;23.274;2023-08-06T03:30:39;8.10;;;6.80;;
21010;SDS011;10663;42.714;23.274;2023-08-06T03:32:13;8.82;;;6.82;;
21010;SDS011;10663;42.714;23.274;2023-08-06T03:33:45;9.88;;;6.63;;
21010;SDS011;10663;42.714;23.274;2023-08-06T03:35:20;7.38;;;6.50;;
21010;SDS011;10663;42.714;23.274;2023-08-06T03:36:51;8.57;;;6.65;;
21010;SDS011;10663;42.714;23.274;2023-08-06T03:38:22;7.38;;;6.45;;
21010;SDS011;10663;42.714;23.274;2023-08-06T03:39:53;9.05;;;6.53;;
21010;SDS011;10663;42.714;23.274;2023-08-06T03:41:25;8.50;;;6.35;;
21010;SDS011;10663;42.714;23.274;2023-08-06T03:42:55;8.80;;;6.47;;
21010;SDS011;10663;42.714;23.274;2023-08-06T03:44:26;8.10;;;6.45;;
21010;SDS011;10663;42.714;23.274;2023-08-06T03:45:58;8.48;;;6.38;;
21010;SDS011;10663;42.714;23.274;2023-08-06T03:47:29;9.75;;;7.20;;
21010;SDS011;10663;42.714;23.274;2023-08-06T03:49:00;7.40;;;6.20;;
21010;SDS011;10663;42.714;23.274;2023-08-06T03:50:31;7.85;;;6.63;;
21010;SDS011;10663;42.714;23.274;2023-08-06T03:52:02;13.13;;;10.05;;
21010;SDS011;10663;42.714;23.274;2023-08-06T03:53:33;15.40;;;7.72;;
21010;SDS011;10663;42.714;23.274;2023-08-06T03:55:04;10.43;;;7.05;;
21010;SDS011;10663;42.714;23.274;2023-08-06T03:56:35;8.32;;;6.72;;
21010;SDS011;10663;42.714;23.274;2023-08-06T03:58:06;9.10;;;6.85;;
21010;SDS011;10663;42.714;23.274;2023-08-06T03:59:37;8.73;;;5.88;;
21010;SDS011;10663;42.714;23.274;2023-08-06T04:01:09;7.60;;;6.80;;
21010;SDS011;10663;42.714;23.274;2023-08-06T04:02:46;12.57;;;9.27;;
21010;SDS011;10663;42.714;23.274;2023-08-06T04:04:18;9.25;;;8.32;;
21010;SDS011;10663;42.714;23.274;2023-08-06T04:05:49;8.23;;;6.60;;
21010;SDS011;10663;42.714;23.274;2023-08-06T04:07:19;7.03;;;6.10;;
21010;SDS011;10663;42.714;23.274;2023-08-06T04:08:52;7.18;;;6.05;;
21010;SDS011;10663;42.714;23.274;2023-08-06T04:10:22;7.38;;;5.75;;
21010;SDS011;10663;42.714;23.274;2023-08-06T04:11:53;9.45;;;6.35;;
21010;SDS011;10663;42.714;23.274;2023-08-06T04:13:24;6.78;;;6.07;;
21010;SDS011;10663;42.714;23.274;2023-08-06T04:14:57;8.48;;;5.88;;
21010;SDS011;10663;42.714;23.274;2023-08-06T04:16:28;10.07;;;6.22;;
21010;SDS011;10663;42.714;23.274;2023-08-06T04:17:59;9.27;;;6.03;;
21010;SDS011;10663;42.714;23.274;2023-08-06T04:19:30;6.65;;;5.35;;
21010;SDS011;10663;42.714;23.274;2023-08-06T04:21:01;6.30;;;5.18;;
21010;SDS011;10663;42.714;23.274;2023-08-06T04:22:32;5.95;;;4.90;;
21010;SDS011;10663;42.714;23.274;2023-08-06T04:24:03;6.07;;;5.47;;
21010;SDS011;10663;42.714;23.274;2023-08-06T04:25:34;7.07;;;4.90;;
21010;SDS011;10663;42.714;23.274;2023-08-06T04:27:05;6.65;;;5.95;;
21010;SDS011;10663;42.714;23.274;2023-08-06T04:28:38;6.55;;;5.80;;
21010;SDS011;10663;42.714;23.274;2023-08-06T04:30:09;6.85;;;5.40;;
21010;SDS011;10663;42.714;23.274;2023-08-06T04:31:42;7.65;;;6.13;;
21010;SDS011;10663;42.714;23.274;2023-08-06T04:33:13;5.90;;;5.28;;
21010;SDS011;10663;42.714;23.274;2023-08-06T04:34:45;8.20;;;6.50;;
21010;SDS011;10663;42.714;23.274;2023-08-06T04:36:17;9.45;;;6.85;;
21010;SDS011;10663;42.714;23.274;2023-08-06T04:37:49;6.70;;;5.85;;
21010;SDS011;10663;42.714;23.274;2023-08-06T04:39:20;7.78;;;6.20;;
21010;SDS011;10663;42.714;23.274;2023-08-06T04:40:51;8.35;;;6.40;;
21010;SDS011;10663;42.714;23.274;2023-08-06T04:42:22;6.13;;;4.88;;
21010;SDS011;10663;42.714;23.274;2023-08-06T04:43:53;5.68;;;5.07;;
21010;SDS011;10663;42.714;23.274;2023-08-06T04:45:24;4.97;;;4.50;;
21010;SDS011;10663;42.714;23.274;2023-08-06T04:46:55;5.15;;;4.65;;
21010;SDS011;10663;42.714;23.274;2023-08-06T04:48:26;4.63;;;4.20;;
21010;SDS011;10663;42.714;23.274;2023-08-06T04:49:57;6.03;;;4.72;;
21010;SDS011;10663;42.714;23.274;2023-08-06T04:51:28;5.05;;;4.15;;
21010;SDS011;10663;42.714;23.274;2023-08-06T04:52:58;5.30;;;4.80;;
21010;SDS011;10663;42.714;23.274;2023-08-06T04:54:29;5.07;;;4.47;;
21010;SDS011;10663;42.714;23.274;2023-08-06T04:56:00;6.72;;;4.88;;
21010;SDS011;10663;42.714;23.274;2023-08-06T04:57:31;5.80;;;5.03;;
21010;SDS011;10663;42.714;23.274;2023-08-06T04:59:02;5.07;;;4.22;;
21010;SDS011;10663;42.714;23.274;2023-08-06T05:00:33;5.90;;;4.60;;
21010;SDS011;10663;42.714;23.274;2023-08-06T05:02:04;5.70;;;4.82;;
21010;SDS011;10663;42.714;23.274;2023-08-06T05:03:35;5.65;;;5.15;;
21010;SDS011;10663;42.714;23.274;2023-08-06T05:05:05;7.18;;;5.10;;
21010;SDS011;10663;42.714;23.274;2023-08-06T05:06:37;7.28;;;5.55;;
21010;SDS011;10663;42.714;23.274;2023-08-06T05:08:14;6.00;;;5.38;;
21010;SDS011;10663;42.714;23.274;2023-08-06T05:09:47;8.48;;;6.25;;
21010;SDS011;10663;42.714;23.274;2023-08-06T05:11:18;6.47;;;5.88;;
21010;SDS011;10663;42.714;23.274;2023-08-06T05:12:48;7.32;;;5.60;;
21010;SDS011;10663;42.714;23.274;2023-08-06T05:14:19;7.32;;;6.30;;
21010;SDS011;10663;42.714;23.274;2023-08-06T05:15:50;7.30;;;6.05;;
21010;SDS011;10663;42.714;23.274;2023-08-06T05:17:23;6.60;;;5.60;;
21010;SDS011;10663;42.714;23.274;2023-08-06T05:18:55;6.70;;;5.72;;
21010;SDS011;10663;42.714;23.274;2023-08-06T05:20:26;8.23;;;7.25;;
21010;SDS011;10663;42.714;23.274;2023-08-06T05:21:57;10.02;;;7.78;;
21010;SDS011;10663;42.714;23.274;2023-08-06T05:23:28;9.25;;;7.38;;
21010;SDS011;10663;42.714;23.274;2023-08-06T05:24:58;11.00;;;8.50;;
21010;SDS011;10663;42.714;23.274;2023-08-06T05:26:30;8.90;;;7.25;;
21010;SDS011;10663;42.714;23.274;2023-08-06T05:28:00;9.77;;;8.68;;
21010;SDS011;10663;42.714;23.274;2023-08-06T05:29:32;9.60;;;8.60;;
21010;SDS011;10663;42.714;23.274;2023-08-06T05:31:03;9.75;;;8.63;;
21010;SDS011;10663;42.714;23.274;2023-08-06T05:32:34;11.40;;;9.05;;
21010;SDS011;10663;42.714;23.274;2023-08-06T05:34:06;11.32;;;8.27;;
21010;SDS011;10663;42.714;23.274;2023-08-06T05:35:40;9.80;;;8.13;;
21010;SDS011;10663;42.714;23.274;2023-08-06T05:37:11;9.27;;;8.32;;
21010;SDS011;10663;42.714;23.274;2023-08-06T05:38:42;7.65;;;6.90;;
21010;SDS011;10663;42.714;23.274;2023-08-06T05:40:13;8.27;;;7.30;;
21010;SDS011;10663;42.714;23.274;2023-08-06T05:41:44;8.77;;;6.60;;
21010;SDS011;10663;42.714;23.274;2023-08-06T05:43:15;7.32;;;6.38;;
21010;SDS011;10663;42.714;23.274;2023-08-06T05:44:46;7.35;;;5.97;;
21010;SDS011;10663;42.714;23.274;2023-08-06T05:46:17;6.75;;;6.03;;
21010;SDS011;10663;42.714;23.274;2023-08-06T05:47:48;5.70;;;4.68;;
21010;SDS011;10663;42.714;23.274;2023-08-06T05:49:19;7.80;;;6.20;;
21010;SDS011;10663;42.714;23.274;2023-08-06T05:50:51;7.05;;;5.30;;
21010;SDS011;10663;42.714;23.274;2023-08-06T05:52:22;9.85;;;5.00;;
21010;SDS011;10663;42.714;23.274;2023-08-06T05:53:53;6.47;;;3.95;;
21010;SDS011;10663;42.714;23.274;2023-08-06T05:55:24;5.70;;;3.92;;
21010;SDS011;10663;42.714;23.274;2023-08-06T05:56:55;3.72;;;3.47;;
21010;SDS011;10663;42.714;23.274;2023-08-06T05:58:26;4.20;;;3.20;;
21010;SDS011;10663;42.714;23.274;2023-08-06T05:59:59;3.42;;;2.88;;
21010;SDS011;10663;42.714;23.274;2023-08-06T06:01:31;4.07;;;3.20;;
21010;SDS011;10663;42.714;23.274;2023-08-06T06:03:02;3.72;;;2.90;;
21010;SDS011;10663;42.714;23.274;2023-08-06T06:04:33;7.60;;;2.90;;
21010;SDS011;10663;42.714;23.274;2023-08-06T06:06:04;2.92;;;2.47;;
21010;SDS011;10663;42.714;23.274;2023-08-06T06:07:35;3.25;;;2.70;;
21010;SDS011;10663;42.714;23.274;2023-08-06T06:09:06;3.83;;;2.22;;
21010;SDS011;10663;42.714;23.274;2023-08-06T06:10:37;2.88;;;2.42;;
21010;SDS011;10663;42.714;23.274;2023-08-06T06:12:08;2.78;;;2.20;;
21010;SDS011;10663;42.714;23.274;2023-08-06T06:13:39;3.10;;;2.65;;
21010;SDS011;10663;42.714;23.274;2023-08-06T06:15:10;3.05;;;2.42;;
21010;SDS011;10663;42.714;23.274;2023-08-06T06:16:41;2.72;;;2.50;;
21010;SDS011;10663;42.714;23.274;2023-08-06T06:18:11;2.83;;;2.13;;
21010;SDS011;10663;42.714;23.274;2023-08-06T06:19:42;3.22;;;2.65;;
21010;SDS011;10663;42.714;23.274;2023-08-06T06:21:14;3.20;;;2.90;;
21010;SDS011;10663;42.714;23.274;2023-08-06T06:22:45;2.72;;;1.98;;
21010;SDS011;10663;42.714;23.274;2023-08-06T06:24:16;2.67;;;2.47;;
21010;SDS011;10663;42.714;23.274;2023-08-06T06:25:47;2.80;;;2.22;;
21010;SDS011;10663;42.714;23.274;2023-08-06T06:27:19;2.78;;;2.38;;
21010;SDS011;10663;42.714;23.274;2023-08-06T06:28:50;2.65;;;2.45;;
21010;SDS011;10663;42.714;23.274;2023-08-06T06:30:21;3.60;;;2.47;;
21010;SDS011;10663;42.714;23.274;2023-08-06T06:31:52;2.55;;;2.35;;
21010;SDS011;10663;42.714;23.274;2023-08-06T06:33:23;2.97;;;2.28;;
21010;SDS011;10663;42.714;23.274;2023-08-06T06:35:01;3.47;;;2.45;;
21010;SDS011;10663;42.714;23.274;2023-08-06T06:36:31;2.50;;;2.30;;
21010;SDS011;10663;42.714;23.274;2023-08-06T06:38:02;5.53;;;2.75;;
21010;SDS011;10663;42.714;23.274;2023-08-06T06:39:36;2.72;;;2.40;;
21010;SDS011;10663;42.714;23.274;2023-08-06T06:41:10;3.92;;;2.90;;
21010;SDS011;10663;42.714;23.274;2023-08-06T06:42:41;3.55;;;2.90;;
21010;SDS011;10663;42.714;23.274;2023-08-06T06:44:14;5.22;;;3.13;;
21010;SDS011;10663;42.714;23.274;2023-08-06T06:45:45;3.17;;;2.75;;
21010;SDS011;10663;42.714;23.274;2023-08-06T06:47:16;3.03;;;2.83;;
21010;SDS011;10663;42.714;23.274;2023-08-06T06:48:48;3.90;;;2.75;;
21010;SDS011;10663;42.714;23.274;2023-08-06T06:50:19;3.17;;;2.88;;
21010;SDS011;10663;42.714;23.274;2023-08-06T06:51:50;3.90;;;2.85;;
21010;SDS011;10663;42.714;23.274;2023-08-06T06:53:21;3.13;;;2.80;;
21010;SDS011;10663;42.714;23.274;2023-08-06T06:54:57;3.28;;;2.72;;
21010;SDS011;10663;42.714;23.274;2023-08-06T06:56:28;5.05;;;2.60;;
21010;SDS011;10663;42.714;23.274;2023-08-06T06:57:59;3.00;;;2.72;;
21010;SDS011;10663;42.714;23.274;2023-08-06T06:59:30;3.40;;;2.47;;
21010;SDS011;10663;42.714;23.274;2023-08-06T07:01:01;3.88;;;2.83;;
21010;SDS011;10663;42.714;23.274;2023-08-06T07:02:32;3.53;;;2.75;;
21010;SDS011;10663;42.714;23.274;2023-08-06T07:04:03;2.90;;;2.50;;
21010;SDS011;10663;42.714;23.274;2023-08-06T07:05:35;5.90;;;3.10;;
21010;SDS011;10663;42.714;23.274;2023-08-06T07:07:06;2.72;;;2.53;;
21010;SDS011;10663;42.714;23.274;2023-08-06T07:08:37;2.85;;;2.60;;
21010;SDS011;10663;42.714;23.274;2023-08-06T07:10:08;6.38;;;2.88;;
21010;SDS011;10663;42.714;23.274;2023-08-06T07:11:39;3.45;;;2.75;;
21010;SDS011;10663;42.714;23.274;2023-08-06T07:13:09;3.40;;;2.55;;
21010;SDS011;10663;42.714;23.274;2023-08-06T07:14:40;3.15;;;2.85;;
21010;SDS011;10663;42.714;23.274;2023-08-06T07:16:11;3.30;;;3.00;;
21010;SDS011;10663;42.714;23.274;2023-08-06T07:17:43;4.25;;;3.10;;
21010;SDS011;10663;42.714;23.274;2023-08-06T07:19:14;3.10;;;2.80;;
21010;SDS011;10663;42.714;23.274;2023-08-06T07:20:48;3.30;;;2.65;;
21010;SDS011;10663;42.714;23.274;2023-08-06T07:22:20;3.13;;;2.75;;
21010;SDS011;10663;42.714;23.274;2023-08-06T07:23:50;3.40;;;3.10;;
21010;SDS011;10663;42.714;23.274;2023-08-06T07:25:22;3.40;;;2.92;;
21010;SDS011;10663;42.714;23.274;2023-08-06T07:26:53;4.80;;;3.60;;
21010;SDS011;10663;42.714;23.274;2023-08-06T07:28:24;4.60;;;3.22;;
21010;SDS011;10663;42.714;23.274;2023-08-06T07:29:55;3.20;;;2.90;;
21010;SDS011;10663;42.714;23.274;2023-08-06T07:31:25;3.65;;;3.17;;
21010;SDS011;10663;42.714;23.274;2023-08-06T07:32:57;5.78;;;3.25;;
21010;SDS011;10663;42.714;23.274;2023-08-06T07:34:29;3.03;;;2.80;;
21010;SDS011;10663;42.714;23.274;2023-08-06T07:36:00;3.38;;;2.90;;
21010;SDS011;10663;42.714;23.274;2023-08-06T07:37:38;3.30;;;3.00;;
21010;SDS011;10663;42.714;23.274;2023-08-06T07:39:09;3.35;;;2.90;;
21010;SDS011;10663;42.714;23.274;2023-08-06T07:40:40;3.13;;;2.83;;
21010;SDS011;10663;42.714;23.274;2023-08-06T07:42:11;3.10;;;2.63;;
21010;SDS011;10663;42.714;23.274;2023-08-06T07:43:42;5.82;;;2.95;;
21010;SDS011;10663;42.714;23.274;2023-08-06T07:45:13;3.53;;;3.08;;
21010;SDS011;10663;42.714;23.274;2023-08-06T07:46:44;3.42;;;3.00;;
21010;SDS011;10663;42.714;23.274;2023-08-06T07:48:15;3.05;;;2.80;;
21010;SDS011;10663;42.714;23.274;2023-08-06T07:49:46;3.58;;;3.03;;
21010;SDS011;10663;42.714;23.274;2023-08-06T07:51:17;3.38;;;3.08;;
21010;SDS011;10663;42.714;23.274;2023-08-06T07:52:48;4.30;;;3.25;;
21010;SDS011;10663;42.714;23.274;2023-08-06T07:54:18;3.67;;;3.17;;
21010;SDS011;10663;42.714;23.274;2023-08-06T07:55:53;3.85;;;3.42;;
21010;SDS011;10663;42.714;23.274;2023-08-06T07:57:24;3.92;;;3.47;;
21010;SDS011;10663;42.714;23.274;2023-08-06T07:58:55;5.45;;;2.90;;
21010;SDS011;10663;42.714;23.274;2023-08-06T08:00:27;4.80;;;3.05;;
21010;SDS011;10663;42.714;23.274;2023-08-06T08:01:58;3.13;;;2.85;;
21010;SDS011;10663;42.714;23.274;2023-08-06T08:03:29;3.42;;;3.10;;
21010;SDS011;10663;42.714;23.274;2023-08-06T08:05:00;3.75;;;3.40;;
21010;SDS011;10663;42.714;23.274;2023-08-06T08:06:31;4.13;;;3.35;;
21010;SDS011;10663;42.714;23.274;2023-08-06T08:08:03;4.13;;;3.15;;
21010;SDS011;10663;42.714;23.274;2023-08-06T08:09:34;4.00;;;3.60;;
21010;SDS011;10663;42.714;23.274;2023-08-06T08:11:06;3.25;;;2.90;;
21010;SDS011;10663;42.714;23.274;2023-08-06T08:12:38;3.67;;;2.63;;
21010;SDS011;10663;42.714;23.274;2023-08-06T08:14:09;4.93;;;3.13;;
21010;SDS011;10663;42.714;23.274;2023-08-06T08:15:39;3.22;;;2.92;;
21010;SDS011;10663;42.714;23.274;2023-08-06T08:17:11;3.55;;;3.20;;
21010;SDS011;10663;42.714;23.274;2023-08-06T08:18:42;3.72;;;3.08;;
21010;SDS011;10663;42.714;23.274;2023-08-06T08:20:13;3.83;;;3.33;;
21010;SDS011;10663;42.714;23.274;2023-08-06T08:21:45;3.92;;;3.17;;
21010;SDS011;10663;42.714;23.274;2023-08-06T08:23:16;3.92;;;3.03;;
21010;SDS011;10663;42.714;23.274;2023-08-06T08:24:47;3.95;;;3.55;;
21010;SDS011;10663;42.714;23.274;2023-08-06T08:26:18;4.10;;;3.65;;
21010;SDS011;10663;42.714;23.274;2023-08-06T08:27:49;3.38;;;3.08;;
21010;SDS011;10663;42.714;23.274;2023-08-06T08:29:20;3.47;;;3.17;;
21010;SDS011;10663;42.714;23.274;2023-08-06T08:30:51;4.25;;;3.10;;
21010;SDS011;10663;42.714;23.274;2023-08-06T08:32:22;4.57;;;3.50;;
21010;SDS011;10663;42.714;23.274;2023-08-06T08:33:54;3.90;;;3.60;;
21010;SDS011;10663;42.714;23.274;2023-08-06T08:35:25;4.40;;;3.05;;
21010;SDS011;10663;42.714;23.274;2023-08-06T08:36:56;5.47;;;3.78;;
21010;SDS011;10663;42.714;23.274;2023-08-06T08:38:28;4.15;;;3.65;;
21010;SDS011;10663;42.714;23.274;2023-08-06T08:39:58;3.97;;;3.30;;
21010;SDS011;10663;42.714;23.274;2023-08-06T08:41:31;3.42;;;3.17;;
21010;SDS011;10663;42.714;23.274;2023-08-06T08:43:03;3.45;;;3.15;;
21010;SDS011;10663;42.714;23.274;2023-08-06T08:44:35;6.50;;;3.60;;
21010;SDS011;10663;42.714;23.274;2023-08-06T08:46:09;3.95;;;3.40;;
21010;SDS011;10663;42.714;23.274;2023-08-06T08:47:42;3.92;;;3.55;;
21010;SDS011;10663;42.714;23.274;2023-08-06T08:49:14;3.30;;;3.10;;
21010;SDS011;10663;42.714;23.274;2023-08-06T08:50:45;4.43;;;3.33;;
21010;SDS011;10663;42.714;23.274;2023-08-06T08:52:17;3.85;;;3.45;;
21010;SDS011;10663;42.714;23.274;2023-08-06T08:53:49;3.88;;;3.58;;
21010;SDS011;10663;42.714;23.274;2023-08-06T08:55:23;4.22;;;3.28;;
21010;SDS011;10663;42.714;23.274;2023-08-06T08:56:54;4.22;;;3.22;;
21010;SDS011;10663;42.714;23.274;2023-08-06T08:58:25;4.28;;;3.53;;
21010;SDS011;10663;42.714;23.274;2023-08-06T08:59:56;5.63;;;3.40;;
21010;SDS011;10663;42.714;23.274;2023-08-06T09:01:28;3.72;;;3.28;;
21010;SDS011;10663;42.714;23.274;2023-08-06T09:03:00;5.10;;;3.70;;
21010;SDS011;10663;42.714;23.274;2023-08-06T09:04:32;3.47;;;3.17;;
21010;SDS011;10663;42.714;23.274;2023-08-06T09:06:03;4.15;;;3.35;;
21010;SDS011;10663;42.714;23.274;2023-08-06T09:07:35;4.97;;;3.40;;